createdAt,value
2022-09-20T00:01:21.943Z,50.78
2022-09-20T00:03:52.072Z,50.08
2022-09-20T00:06:22.513Z,50.82
2022-09-20T00:08:50.420Z,50.40
2022-09-20T00:11:20.218Z,50.77
2022-09-20T00:13:49.979Z,50.91
2022-09-20T00:16:24.168Z,51.15
2022-09-20T00:18:53.137Z,50.49
2022-09-20T00:21:23.593Z,50.75
2022-09-20T00:23:52.601Z,49.98
2022-09-20T00:26:21.179Z,49.75
2022-09-20T00:28:48.477Z,49.30
2022-09-20T00:31:16.359Z,49.41
2022-09-20T00:34:02.735Z,49.79
2022-09-20T00:36:30.235Z,49.19
2022-09-20T00:39:00.005Z,49.70
2022-09-20T00:41:28.483Z,49.60
2022-09-20T00:43:56.519Z,50.83
2022-09-20T00:46:29.798Z,50.42
2022-09-20T00:49:04.107Z,49.82
2022-09-20T00:51:35.323Z,50.19
2022-09-20T00:54:05.842Z,49.80
2022-09-20T00:56:37.000Z,50.10
2022-09-20T00:59:10.174Z,50.07
2022-09-20T01:01:37.945Z,50.36
2022-09-20T01:04:05.859Z,49.78
2022-09-20T01:06:34.865Z,50.12
2022-09-20T01:09:05.710Z,50.11
2022-09-20T01:11:35.717Z,49.27
2022-09-20T01:14:02.981Z,49.48
2022-09-20T01:16:32.274Z,50.38
2022-09-20T01:19:05.655Z,50.25
2022-09-20T01:21:34.890Z,50.54
2022-09-20T01:24:25.205Z,50.49
2022-09-20T01:27:13.036Z,50.75
2022-09-20T01:30:08.698Z,49.77
2022-09-20T01:33:03.135Z,50.59
2022-09-20T01:35:34.538Z,50.40
2022-09-20T01:38:03.091Z,50.13
2022-09-20T01:41:04.647Z,50.11
2022-09-20T01:43:55.254Z,48.84
2022-09-20T01:46:31.786Z,48.58
2022-09-20T01:49:33.896Z,47.94
2022-09-20T01:52:19.821Z,47.69
2022-09-20T01:55:02.314Z,47.97
2022-09-20T01:58:05.050Z,47.76
2022-09-20T02:01:04.708Z,47.37
2022-09-20T02:04:09.541Z,47.77
2022-09-20T02:07:07.511Z,47.96
2022-09-20T02:10:16.160Z,48.04
2022-09-20T02:13:01.401Z,48.16
2022-09-20T02:15:36.837Z,48.47
2022-09-20T02:18:22.442Z,48.90
2022-09-20T02:21:05.597Z,49.27
2022-09-20T02:23:45.791Z,48.25
2022-09-20T02:26:22.008Z,48.00
2022-09-20T02:28:52.063Z,48.47
2022-09-20T02:31:58.835Z,48.67
2022-09-20T02:34:29.532Z,47.77
2022-09-20T02:37:21.447Z,47.36
2022-09-20T02:40:32.625Z,48.30
2022-09-20T02:43:23.147Z,48.25
2022-09-20T02:46:24.679Z,47.38
2022-09-20T02:49:16.000Z,47.51
2022-09-20T02:52:04.937Z,47.12
2022-09-20T02:54:54.837Z,47.83
2022-09-20T02:57:27.376Z,46.55
2022-09-20T03:00:17.101Z,46.12
2022-09-20T03:03:16.082Z,46.11
2022-09-20T03:06:07.601Z,46.52
2022-09-20T03:08:49.961Z,46.06
2022-09-20T03:11:28.087Z,45.84
2022-09-20T03:14:09.687Z,45.96
2022-09-20T03:16:58.829Z,46.54
2022-09-20T03:19:51.659Z,46.22
2022-09-20T03:22:39.651Z,46.76
2022-09-20T03:25:25.576Z,46.30
2022-09-20T03:28:17.321Z,46.99
2022-09-20T03:30:52.252Z,46.47
2022-09-20T03:33:46.072Z,53.07
2022-09-20T03:36:38.237Z,55.47
2022-09-20T03:39:43.047Z,56.02
2022-09-20T03:42:20.135Z,57.19
2022-09-20T03:45:15.738Z,57.12
2022-09-20T03:48:29.913Z,56.94
2022-09-20T03:51:20.847Z,56.84
2022-09-20T03:54:03.297Z,57.18
2022-09-20T03:56:30.592Z,57.34
2022-09-20T03:59:06.483Z,55.73
2022-09-20T04:01:48.895Z,51.21
2022-09-20T04:04:44.669Z,53.17
2022-09-20T04:07:52.534Z,47.78
2022-09-20T04:10:41.294Z,46.96
2022-09-20T04:13:29.991Z,47.40
2022-09-20T04:16:09.604Z,48.29
2022-09-20T04:18:55.833Z,48.66
2022-09-20T04:21:28.228Z,48.73
2022-09-20T04:24:16.753Z,48.95
2022-09-20T04:26:52.166Z,50.13
2022-09-20T04:29:54.403Z,46.86
2022-09-20T04:32:47.233Z,47.34
2022-09-20T04:35:52.119Z,47.85
2022-09-20T04:38:21.377Z,48.21
2022-09-20T04:41:04.328Z,48.69
2022-09-20T04:44:07.533Z,47.90
2022-09-20T04:46:56.392Z,48.33
2022-09-20T04:49:41.889Z,48.22
2022-09-20T04:52:21.224Z,48.29
2022-09-20T04:55:20.911Z,49.62
2022-09-20T04:58:20.008Z,49.20
2022-09-20T05:01:11.318Z,50.27
2022-09-20T05:03:59.793Z,50.79
2022-09-20T05:06:36.377Z,52.47
2022-09-20T05:09:35.984Z,55.55
2022-09-20T05:12:07.129Z,55.91
2022-09-20T05:15:08.480Z,56.05
2022-09-20T05:17:53.908Z,55.42
2022-09-20T05:20:39.547Z,56.90
2022-09-20T05:23:35.040Z,57.04
2022-09-20T05:26:09.033Z,58.16
2022-09-20T05:28:55.137Z,59.35
2022-09-20T05:31:31.077Z,59.78
2022-09-20T05:34:39.495Z,60.23
2022-09-20T05:37:35.706Z,59.52
2022-09-20T05:40:18.182Z,59.31
2022-09-20T05:43:13.597Z,58.09
2022-09-20T05:45:50.395Z,58.03
2022-09-20T05:48:52.812Z,56.09
2022-09-20T05:51:23.277Z,55.01
2022-09-20T05:54:09.489Z,54.20
2022-09-20T05:57:08.245Z,55.45
2022-09-20T05:59:45.561Z,55.20
2022-09-20T06:02:24.984Z,55.80
2022-09-20T06:05:09.545Z,56.40
2022-09-20T06:07:55.116Z,56.62
2022-09-20T06:10:54.843Z,56.02
2022-09-20T06:14:04.009Z,55.64
2022-09-20T06:16:44.143Z,54.87
2022-09-20T06:19:35.635Z,54.60
2022-09-20T06:22:25.774Z,54.09
2022-09-20T06:25:11.314Z,53.74
2022-09-20T06:27:45.972Z,53.36
2022-09-20T06:30:20.276Z,52.27
2022-09-20T06:33:06.659Z,51.99
2022-09-20T06:35:39.442Z,50.74
2022-09-20T06:38:47.719Z,49.55
2022-09-20T06:41:28.820Z,44.32
2022-09-20T06:44:01.406Z,45.56
2022-09-20T06:46:31.168Z,45.02
2022-09-20T06:48:58.991Z,43.20
2022-09-20T06:51:29.014Z,41.40
2022-09-20T06:53:57.833Z,40.36
2022-09-20T06:56:31.555Z,39.85
2022-09-20T06:59:00.506Z,39.78
2022-09-20T07:01:30.541Z,40.11
2022-09-20T07:03:59.232Z,38.80
2022-09-20T07:06:26.985Z,38.66
2022-09-20T07:08:54.482Z,38.47
2022-09-20T07:11:23.459Z,38.60
2022-09-20T07:13:55.393Z,37.78
2022-09-20T07:16:22.883Z,38.09
2022-09-20T07:18:52.594Z,37.21
2022-09-20T07:21:21.634Z,37.46
2022-09-20T07:23:49.416Z,36.79
2022-09-20T07:26:20.405Z,36.12
2022-09-20T07:28:48.271Z,35.64
2022-09-20T07:31:17.232Z,36.23
2022-09-20T07:33:45.101Z,35.92
2022-09-20T07:36:13.116Z,37.73
2022-09-20T07:38:42.439Z,36.80
2022-09-20T07:41:10.986Z,36.49
2022-09-20T07:43:39.994Z,36.01
2022-09-20T07:46:10.533Z,36.17
2022-09-20T07:48:38.558Z,36.33
2022-09-20T07:51:09.161Z,35.97
2022-09-20T07:53:37.765Z,36.70
2022-09-20T07:56:10.626Z,34.54
2022-09-20T07:58:38.500Z,35.52
2022-09-20T08:01:08.472Z,34.58
2022-09-20T08:03:36.794Z,33.67
2022-09-20T08:06:07.802Z,34.27
2022-09-20T08:08:36.636Z,34.04
2022-09-20T08:11:13.091Z,34.50
2022-09-20T08:16:38.566Z,33.95
2022-09-20T08:19:06.023Z,34.53
2022-09-20T08:21:35.662Z,35.45
2022-09-20T08:24:04.247Z,33.91
2022-09-20T08:26:34.161Z,33.97
2022-09-20T08:29:01.827Z,33.78
2022-09-20T08:31:35.702Z,33.47
2022-09-20T08:34:07.051Z,33.15
2022-09-20T08:36:37.249Z,34.39
2022-09-20T08:42:14.471Z,35.40
2022-09-20T08:44:59.592Z,35.64
2022-09-20T08:47:33.473Z,34.63
2022-09-20T08:50:17.033Z,33.74
2022-09-20T08:52:48.788Z,33.64
2022-09-20T08:55:23.315Z,34.09
2022-09-20T08:57:54.001Z,33.81
2022-09-20T09:00:29.695Z,33.81
2022-09-20T09:03:01.162Z,33.59
2022-09-20T09:05:39.994Z,34.35
2022-09-20T09:08:16.910Z,35.20
2022-09-20T09:10:48.353Z,34.43
2022-09-20T09:13:24.091Z,33.33
2022-09-20T09:16:06.888Z,32.83
2022-09-20T09:18:37.973Z,32.72
2022-09-20T09:21:07.930Z,32.54
2022-09-20T09:23:45.781Z,32.21
2022-09-20T09:26:20.157Z,32.29
2022-09-20T09:28:48.643Z,32.34
2022-09-20T09:31:26.354Z,33.35
2022-09-20T09:33:53.962Z,33.23
2022-09-20T09:36:25.644Z,32.78
2022-09-20T09:39:16.605Z,32.01
2022-09-20T09:41:44.596Z,32.95
2022-09-20T09:44:27.955Z,32.68
2022-09-20T09:46:57.449Z,33.17
2022-09-20T09:49:36.509Z,31.97
2022-09-20T09:52:24.908Z,29.91
2022-09-20T09:55:00.414Z,30.78
2022-09-20T09:58:03.431Z,30.20
2022-09-20T10:00:31.677Z,30.31
2022-09-20T10:03:14.116Z,30.27
2022-09-20T10:06:10.783Z,28.54
2022-09-20T10:09:13.207Z,29.48
2022-09-20T10:11:58.988Z,29.07
2022-09-20T10:14:31.045Z,29.05
2022-09-20T10:17:18.049Z,29.85
2022-09-20T10:19:57.618Z,28.42
2022-09-20T10:22:31.433Z,28.82
2022-09-20T10:25:35.172Z,28.98
2022-09-20T10:28:20.556Z,29.16
2022-09-20T10:30:58.664Z,30.12
2022-09-20T10:33:32.814Z,29.71
2022-09-20T10:36:12.562Z,29.63
2022-09-20T10:38:40.028Z,29.05
2022-09-20T10:41:51.468Z,28.65
2022-09-20T10:44:19.160Z,27.02
2022-09-20T10:46:53.302Z,27.95
2022-09-20T10:49:38.927Z,27.41
2022-09-20T10:52:07.664Z,27.48
2022-09-20T10:55:06.539Z,26.76
2022-09-20T10:57:46.948Z,26.49
2022-09-20T11:00:28.182Z,26.11
2022-09-20T11:03:07.639Z,27.55
2022-09-20T11:06:08.779Z,27.81
2022-09-20T11:08:38.463Z,27.32
2022-09-20T11:11:20.189Z,27.60
2022-09-20T11:14:22.377Z,27.56
2022-09-20T11:16:57.953Z,27.15
2022-09-20T11:19:51.149Z,26.00
2022-09-20T11:22:40.890Z,25.55
2022-09-20T11:25:28.739Z,25.84
2022-09-20T11:28:25.785Z,25.40
2022-09-20T11:31:19.190Z,26.38
2022-09-20T11:34:16.647Z,25.79
2022-09-20T11:36:54.818Z,25.76
2022-09-20T11:39:28.216Z,25.63
2022-09-20T11:42:00.584Z,23.47
2022-09-20T11:44:28.350Z,22.23
2022-09-20T11:47:10.405Z,22.43
2022-09-20T11:49:58.710Z,22.92
2022-09-20T11:53:00.114Z,24.55
2022-09-20T11:55:51.015Z,23.32
2022-09-20T11:58:22.714Z,22.78
2022-09-20T12:00:54.659Z,22.30
2022-09-20T12:03:34.158Z,22.57
2022-09-20T12:06:09.864Z,24.41
2022-09-20T12:08:41.103Z,24.58
2022-09-20T12:11:14.970Z,25.86
2022-09-20T12:13:52.882Z,25.78
2022-09-20T12:16:46.779Z,26.46
2022-09-20T12:19:32.480Z,26.04
2022-09-20T12:21:59.834Z,26.58
2022-09-20T12:24:32.501Z,26.63
2022-09-20T12:27:25.036Z,26.63
2022-09-20T12:30:21.571Z,26.20
2022-09-20T12:32:52.425Z,27.61
2022-09-20T12:35:40.480Z,28.61
2022-09-20T12:38:29.345Z,29.01
2022-09-20T12:41:03.943Z,28.49
2022-09-20T12:43:34.451Z,28.39
2022-09-20T12:46:06.453Z,28.21
2022-09-20T12:48:39.431Z,29.05
2022-09-20T12:51:41.316Z,27.98
2022-09-20T12:54:12.108Z,28.74
2022-09-20T12:56:41.872Z,28.04
2022-09-20T12:59:25.317Z,28.40
2022-09-20T13:01:58.130Z,28.21
2022-09-20T13:04:55.590Z,28.84
2022-09-20T13:07:44.182Z,29.04
2022-09-20T13:10:24.111Z,29.42
2022-09-20T13:12:58.298Z,29.73
2022-09-20T13:15:26.690Z,29.23
2022-09-20T13:17:56.692Z,28.35
2022-09-20T13:20:29.535Z,27.77
2022-09-20T13:23:00.426Z,27.94
2022-09-20T13:25:32.676Z,28.35
2022-09-20T13:28:07.945Z,28.29
2022-09-20T13:30:35.637Z,28.88
2022-09-20T13:33:24.605Z,29.07
2022-09-20T13:35:54.887Z,29.06
2022-09-20T13:38:25.358Z,29.12
2022-09-20T13:40:58.660Z,29.06
2022-09-20T13:43:36.926Z,27.96
2022-09-20T13:46:22.526Z,28.25
2022-09-20T13:48:59.937Z,28.71
2022-09-20T13:51:28.812Z,29.46
2022-09-20T13:54:27.768Z,29.63
2022-09-20T13:56:59.197Z,29.28
2022-09-20T13:59:33.912Z,29.32
2022-09-20T14:02:01.971Z,29.04
2022-09-20T14:04:31.648Z,29.87
2022-09-20T14:07:01.101Z,29.68
2022-09-20T14:09:36.329Z,29.32
2022-09-20T14:12:05.063Z,29.79
2022-09-20T14:14:34.715Z,29.74
2022-09-20T14:17:06.434Z,29.78
2022-09-20T14:19:41.458Z,30.71
2022-09-20T14:22:16.543Z,30.67
2022-09-20T14:25:04.625Z,30.94
2022-09-20T14:27:32.895Z,31.14
2022-09-20T14:30:02.537Z,31.54
2022-09-20T14:32:43.262Z,31.65
2022-09-20T14:35:20.603Z,32.19
2022-09-20T14:37:51.528Z,31.42
2022-09-20T14:40:34.667Z,31.52
2022-09-20T14:43:04.866Z,31.42
2022-09-20T14:45:43.364Z,31.25
2022-09-20T14:48:17.037Z,31.67
2022-09-20T14:50:47.540Z,32.07
2022-09-20T14:53:27.150Z,32.55
2022-09-20T14:56:06.615Z,32.25
2022-09-20T14:58:55.405Z,32.18
2022-09-20T15:01:26.074Z,32.31
2022-09-20T15:03:54.036Z,33.36
2022-09-20T15:06:21.387Z,33.43
2022-09-20T15:08:51.008Z,34.03
2022-09-20T15:11:19.521Z,33.43
2022-09-20T15:13:46.909Z,33.75
2022-09-20T15:16:17.916Z,33.54
2022-09-20T15:18:45.593Z,33.33
2022-09-20T15:21:15.446Z,32.59
2022-09-20T15:23:43.192Z,33.23
2022-09-20T15:26:13.842Z,32.96
2022-09-20T15:28:44.167Z,33.28
2022-09-20T15:31:13.813Z,32.54
2022-09-20T15:33:42.012Z,32.70
2022-09-20T15:36:10.527Z,33.00
2022-09-20T15:38:48.228Z,33.08
2022-09-20T15:41:15.680Z,33.22
2022-09-20T15:43:44.553Z,33.63
2022-09-20T15:46:29.193Z,33.81
2022-09-20T15:48:57.196Z,34.08
2022-09-20T15:51:24.694Z,34.52
2022-09-20T15:53:59.514Z,34.36
2022-09-20T15:56:29.153Z,34.65
2022-09-20T15:59:00.553Z,35.12
2022-09-20T16:01:41.007Z,35.22
2022-09-20T16:04:14.013Z,34.75
2022-09-20T16:06:43.924Z,34.83
2022-09-20T16:09:12.186Z,34.84
2022-09-20T16:11:40.184Z,35.56
2022-09-20T16:14:07.950Z,35.50
2022-09-20T16:16:40.018Z,36.26
2022-09-20T16:19:21.143Z,38.10
2022-09-20T16:21:59.299Z,39.20
2022-09-20T16:24:32.182Z,40.46
2022-09-20T16:27:03.619Z,40.86
2022-09-20T16:29:31.344Z,41.47
2022-09-20T16:32:00.511Z,42.08
2022-09-20T16:34:36.565Z,42.31
2022-09-20T16:37:12.062Z,42.46
2022-09-20T16:39:44.817Z,42.97
2022-09-20T16:42:15.610Z,43.34
2022-09-20T16:50:55.154Z,43.17
2022-09-20T16:53:26.206Z,43.86
2022-09-20T16:56:04.697Z,43.83
2022-09-20T16:58:32.555Z,43.51
2022-09-20T17:01:10.078Z,43.75
2022-09-20T17:03:46.592Z,43.59
2022-09-20T17:06:36.387Z,43.70
2022-09-20T17:09:11.852Z,43.67
2022-09-20T17:11:49.918Z,43.66
2022-09-20T17:14:30.388Z,44.09
2022-09-20T17:17:07.125Z,43.98
2022-09-20T17:19:42.815Z,44.12
2022-09-20T17:22:23.248Z,44.31
2022-09-20T17:24:50.629Z,44.47
2022-09-20T17:27:22.805Z,44.79
2022-09-20T17:29:52.716Z,45.19
2022-09-20T17:32:22.935Z,45.47
2022-09-20T17:34:53.701Z,45.68
2022-09-20T17:37:23.473Z,46.07
2022-09-20T17:39:51.165Z,45.80
2022-09-20T17:42:21.594Z,45.78
2022-09-20T17:44:49.185Z,46.20
2022-09-20T17:47:21.043Z,46.61
2022-09-20T17:49:51.418Z,46.76
2022-09-20T17:52:21.882Z,47.07
2022-09-20T17:54:49.451Z,47.41
2022-09-20T17:57:16.856Z,47.29
2022-09-20T17:59:44.321Z,47.59
2022-09-20T18:02:11.654Z,47.95
2022-09-20T18:04:39.049Z,47.90
2022-09-20T18:07:06.559Z,48.44
2022-09-20T18:09:34.172Z,48.61
2022-09-20T18:12:01.617Z,48.83
2022-09-20T18:14:30.386Z,49.14
2022-09-20T18:17:01.438Z,49.71
2022-09-20T18:19:34.015Z,50.09
2022-09-20T18:22:02.662Z,50.64
2022-09-20T18:24:30.555Z,51.12
2022-09-20T18:27:01.259Z,51.17
2022-09-20T18:29:29.574Z,50.86
2022-09-20T18:31:58.116Z,51.16
2022-09-20T18:34:31.285Z,51.51
2022-09-20T18:37:00.101Z,51.88
2022-09-20T18:39:35.586Z,51.78
2022-09-20T18:42:03.530Z,51.79
2022-09-20T18:44:32.572Z,52.66
2022-09-20T18:47:01.651Z,52.32
2022-09-20T18:49:30.758Z,52.62
2022-09-20T18:51:58.691Z,52.56
2022-09-20T18:54:27.199Z,53.06
2022-09-20T18:56:54.787Z,53.57
2022-09-20T18:59:26.955Z,54.08
2022-09-20T19:02:12.592Z,54.14
2022-09-20T19:05:07.008Z,54.16
2022-09-20T19:08:08.045Z,54.25
2022-09-20T19:10:51.318Z,54.29
2022-09-20T19:13:25.901Z,54.31
2022-09-20T19:16:11.493Z,54.53
2022-09-20T19:19:15.113Z,55.17
2022-09-20T19:22:16.727Z,55.45
2022-09-20T19:25:13.654Z,56.06
2022-09-20T19:27:41.736Z,55.85
2022-09-20T19:30:13.672Z,55.90
2022-09-20T19:32:41.678Z,55.89
2022-09-20T19:35:34.422Z,56.09
2022-09-20T19:38:18.060Z,56.14
2022-09-20T19:41:14.025Z,56.92
2022-09-20T19:43:47.126Z,57.26
2022-09-20T19:46:58.423Z,57.64
2022-09-20T19:49:36.993Z,57.40
2022-09-20T19:52:09.030Z,58.04
2022-09-20T19:54:36.763Z,57.47
2022-09-20T19:57:09.942Z,57.43
2022-09-20T19:59:37.617Z,58.41
2022-09-20T20:02:05.886Z,58.50
2022-09-20T20:04:33.511Z,58.66
2022-09-20T20:07:16.783Z,58.85
2022-09-20T20:09:56.193Z,58.87
2022-09-20T20:12:41.536Z,57.89
2022-09-20T20:15:37.713Z,58.53
2022-09-20T20:18:37.441Z,59.14
2022-09-20T20:21:13.693Z,59.02
2022-09-20T20:23:48.062Z,59.33
2022-09-20T20:26:26.172Z,58.94
2022-09-20T20:28:53.898Z,59.35
2022-09-20T20:31:22.099Z,59.41
2022-09-20T20:33:54.496Z,59.52
2022-09-20T20:36:21.925Z,59.20
2022-09-20T20:38:53.379Z,58.98
2022-09-20T20:41:21.905Z,58.93
2022-09-20T20:43:56.587Z,58.84
2022-09-20T20:46:25.594Z,59.33
2022-09-20T20:48:53.138Z,59.41
2022-09-20T20:51:22.514Z,59.19
2022-09-20T20:53:52.203Z,59.25
2022-09-20T20:56:26.074Z,59.77
2022-09-20T20:58:54.383Z,59.86
2022-09-20T21:01:25.081Z,59.61
2022-09-20T21:03:54.199Z,60.15
2022-09-20T21:06:25.278Z,60.62
2022-09-20T21:08:52.923Z,60.90
2022-09-20T21:11:32.214Z,61.01
2022-09-20T21:14:01.619Z,60.99
2022-09-20T21:16:31.885Z,61.03
2022-09-20T21:18:59.516Z,61.01
2022-09-20T21:21:30.214Z,60.75
2022-09-20T21:24:00.319Z,61.00
2022-09-20T21:26:32.129Z,61.68
2022-09-20T21:29:01.659Z,62.21
2022-09-20T21:31:31.668Z,62.85
2022-09-20T21:33:59.794Z,63.10
2022-09-20T21:36:29.383Z,62.64
2022-09-20T21:38:57.219Z,62.58
2022-09-20T21:41:31.921Z,62.14
2022-09-20T21:44:00.995Z,62.56
2022-09-20T21:46:30.059Z,62.22
2022-09-20T21:48:59.973Z,62.63
2022-09-20T21:51:31.484Z,61.98
2022-09-20T21:54:01.756Z,62.32
2022-09-20T21:56:32.366Z,62.18
2022-09-20T21:59:02.815Z,62.08
2022-09-20T22:01:35.671Z,61.76
2022-09-20T22:04:08.650Z,61.79
2022-09-20T22:06:38.970Z,62.24
2022-09-20T22:09:14.975Z,62.65
2022-09-20T22:11:47.477Z,62.36
2022-09-20T22:14:16.540Z,62.89
2022-09-20T22:16:45.384Z,62.78
2022-09-20T22:19:15.350Z,62.76
2022-09-20T22:21:45.369Z,63.21
2022-09-20T22:24:14.286Z,62.26
2022-09-20T22:26:44.776Z,62.92
2022-09-20T22:29:12.467Z,62.50
2022-09-20T22:31:45.357Z,62.65
2022-09-20T22:34:18.550Z,62.85
2022-09-20T22:36:47.170Z,63.16
2022-09-20T22:39:15.574Z,63.22
2022-09-20T22:41:43.585Z,63.22
2022-09-20T22:44:11.656Z,63.56
2022-09-20T22:46:39.703Z,63.14
2022-09-20T22:49:08.676Z,63.45
2022-09-20T22:51:36.837Z,62.82
2022-09-20T22:54:09.849Z,63.02
2022-09-20T22:56:39.644Z,63.58
2022-09-20T22:59:12.107Z,63.89
2022-09-20T23:01:42.540Z,63.81
2022-09-20T23:04:13.089Z,62.76
2022-09-20T23:06:43.077Z,63.79
2022-09-20T23:09:13.185Z,63.92
2022-09-20T23:11:42.945Z,63.07
2022-09-20T23:14:21.483Z,63.44
2022-09-20T23:16:49.626Z,62.63
2022-09-20T23:19:17.684Z,63.08
2022-09-20T23:21:45.446Z,63.02
2022-09-20T23:24:14.591Z,62.26
2022-09-20T23:26:43.318Z,62.19
2022-09-20T23:29:12.931Z,62.25
2022-09-20T23:31:45.758Z,62.28
2022-09-20T23:34:14.252Z,62.27
2022-09-20T23:36:41.852Z,62.79
2022-09-20T23:39:10.476Z,62.60
2022-09-20T23:41:38.687Z,62.23
2022-09-20T23:44:10.304Z,61.37
2022-09-20T23:46:39.019Z,61.73
2022-09-20T23:49:07.647Z,62.18
2022-09-20T23:51:35.753Z,61.81
2022-09-20T23:54:03.344Z,62.09
2022-09-20T23:56:30.786Z,62.34
2022-09-20T23:58:58.240Z,61.43
